Time;durP1;ratioP1;P1;durP2;ratioP2;P2;SDS_P1;SDS_P2;PMS_P1;PMS_P2;Temp;Humidity;BMP_temperature;BMP_pressure;BME280_temperature;BME280_humidity;BME280_pressure;Samples;Min_cycle;Max_cycle;Signal;HPM_P1;HPM_P2
2021/06/15 00:01:55;;;;;;;0.27;0.27;;;19.40;99.90;;;;;;5100711;28;20180;-85
2021/06/15 00:04:20;;;;;;;0.40;0.30;;;19.40;99.90;;;;;;5095495;28;20207;-85
2021/06/15 00:06:46;;;;;;;0.47;0.47;;;19.40;99.90;;;;;;5113854;28;20224;-85
2021/06/15 00:09:11;;;;;;;0.20;0.20;;;19.30;99.90;;;;;;5119161;28;20578;-85
2021/06/15 00:11:37;;;;;;;0.30;0.30;;;19.30;99.90;;;;;;5104120;28;20180;-84
2021/06/15 00:14:03;;;;;;;1.07;0.33;;;19.30;99.90;;;;;;5103689;28;20258;-85
2021/06/15 00:16:30;;;;;;;1.20;0.40;;;19.30;99.90;;;;;;5115762;28;20267;-85
2021/06/15 00:18:56;;;;;;;0.10;0.10;;;19.20;99.90;;;;;;5115757;28;20203;-85
2021/06/15 00:21:22;;;;;;;0.63;0.33;;;19.20;99.90;;;;;;5097018;28;20335;-87
2021/06/15 00:23:47;;;;;;;0.33;0.30;;;18.80;99.90;;;;;;5109743;28;20294;-85
2021/06/15 00:26:13;;;;;;;0.50;0.37;;;18.90;99.90;;;;;;5096283;28;20188;-85
2021/06/15 00:28:38;;;;;;;0.13;0.13;;;19.00;99.90;;;;;;5106818;28;20196;-85
2021/06/15 00:31:04;;;;;;;0.90;0.40;;;19.00;99.90;;;;;;5105725;28;20176;-85
2021/06/15 00:33:30;;;;;;;0.40;0.40;;;19.10;99.90;;;;;;5097424;28;20188;-85
2021/06/15 00:35:55;;;;;;;0.40;0.37;;;19.00;99.90;;;;;;5110214;28;20275;-85
2021/06/15 00:38:21;;;;;;;0.40;0.40;;;18.90;99.90;;;;;;5111099;28;20272;-85
2021/06/15 00:40:47;;;;;;;0.50;0.50;;;18.60;99.90;;;;;;5105571;28;20184;-85
2021/06/15 00:43:13;;;;;;;3.07;0.57;;;18.50;99.90;;;;;;5110834;28;20243;-85
2021/06/15 00:45:38;;;;;;;0.30;0.30;;;18.30;99.90;;;;;;5103338;28;20663;-86
2021/06/15 00:48:04;;;;;;;1.20;0.57;;;18.40;99.90;;;;;;5099173;28;20203;-85
2021/06/15 00:50:30;;;;;;;0.73;0.40;;;18.50;99.90;;;;;;5106948;28;20171;-85
2021/06/15 00:52:56;;;;;;;0.20;0.20;;;18.60;99.90;;;;;;5105574;28;20186;-85
2021/06/15 00:55:24;;;;;;;0.40;0.40;;;18.40;99.90;;;;;;5108656;28;20267;-85
2021/06/15 00:57:50;;;;;;;0.20;0.20;;;18.30;99.90;;;;;;5109352;28;20213;-85
2021/06/15 01:00:17;;;;;;;0.40;0.37;;;18.30;99.90;;;;;;5112283;28;20199;-84
2021/06/15 01:02:43;;;;;;;0.17;0.17;;;18.40;99.90;;;;;;5110385;28;20623;-89
2021/06/15 01:05:10;;;;;;;0.73;0.20;;;18.50;99.90;;;;;;5105577;28;20236;-85
2021/06/15 01:08:04;;;;;;;0.40;0.30;;;18.60;99.90;;;;;;5113109;28;20198;-85
2021/06/15 01:10:50;;;;;;;0.20;0.20;;;18.70;99.90;;;;;;5115049;28;20642;-85
2021/06/15 01:13:31;;;;;;;0.30;0.27;;;18.80;99.90;;;;;;5100927;28;20173;-85
2021/06/15 01:16:02;;;;;;;0.20;0.20;;;18.90;99.90;;;;;;5095832;28;20181;-84
2021/06/15 01:18:29;;;;;;;2.07;0.43;;;18.80;99.90;;;;;;5096898;28;20238;-85
2021/06/15 01:21:02;;;;;;;0.20;0.20;;;18.80;99.90;;;;;;5104820;28;20183;-85
2021/06/15 01:23:37;;;;;;;0.60;0.60;;;18.70;99.90;;;;;;5109067;28;20324;-85
2021/06/15 01:26:27;;;;;;;0.63;0.40;;;18.40;99.90;;;;;;5116022;28;20685;-87
2021/06/15 01:29:01;;;;;;;0.20;0.20;;;18.30;99.90;;;;;;5111252;28;20208;-85
2021/06/15 01:31:41;;;;;;;0.40;0.40;;;18.40;99.90;;;;;;5105434;28;20179;-86
2021/06/15 01:34:10;;;;;;;0.30;0.30;;;18.50;99.90;;;;;;5113032;28;20280;-86
2021/06/15 01:36:47;;;;;;;0.47;0.40;;;18.50;99.90;;;;;;5102735;28;20219;-90
2021/06/15 01:39:17;;;;;;;0.17;0.17;;;18.50;99.90;;;;;;5101098;28;20293;-85
2021/06/15 01:42:04;;;;;;;0.50;0.50;;;18.30;99.90;;;;;;5107264;28;20187;-85
2021/06/15 01:44:32;;;;;;;0.30;0.30;;;18.30;99.90;;;;;;5111880;27;20215;-86
2021/06/15 01:47:01;;;;;;;0.40;0.40;;;18.30;99.90;;;;;;5099062;28;20226;-87
2021/06/15 01:49:30;;;;;;;0.23;0.23;;;18.40;99.90;;;;;;5112161;28;20198;-84
2021/06/15 01:51:57;;;;;;;0.63;0.63;;;18.40;99.90;;;;;;5109854;28;20594;-85
2021/06/15 01:54:24;;;;;;;0.30;0.30;;;18.30;99.90;;;;;;5111164;28;20711;-85
2021/06/15 01:56:52;;;;;;;0.30;0.30;;;18.20;99.90;;;;;;5096756;28;20652;-84
2021/06/15 01:59:22;;;;;;;0.30;0.30;;;18.10;99.90;;;;;;5108307;28;20208;-85
2021/06/15 02:01:54;;;;;;;0.27;0.27;;;18.00;99.90;;;;;;5102146;28;20179;-85
2021/06/15 02:04:20;;;;;;;0.40;0.37;;;17.80;99.90;;;;;;5098384;28;20210;-85
2021/06/15 02:06:47;;;;;;;0.20;0.20;;;17.90;99.90;;;;;;5107292;28;20183;-85
2021/06/15 02:09:14;;;;;;;0.30;0.30;;;18.00;99.90;;;;;;5114650;28;20202;-85
2021/06/15 02:11:42;;;;;;;0.27;0.27;;;18.10;99.90;;;;;;5108694;28;20176;-85
2021/06/15 02:14:17;;;;;;;0.20;0.20;;;18.20;99.90;;;;;;5098217;28;20195;-85
2021/06/15 02:16:43;;;;;;;0.40;0.40;;;18.20;99.90;;;;;;5106361;28;20230;-85
2021/06/15 02:19:10;;;;;;;0.30;0.30;;;18.30;99.90;;;;;;5096691;28;20219;-85
2021/06/15 02:21:37;;;;;;;0.57;0.50;;;18.30;99.90;;;;;;5116309;27;20181;-85
2021/06/15 02:24:04;;;;;;;0.33;0.30;;;18.00;99.90;;;;;;5109227;28;20216;-85
2021/06/15 02:26:31;;;;;;;0.30;0.30;;;17.70;99.90;;;;;;5104836;28;20267;-85
2021/06/15 02:28:58;;;;;;;0.10;0.10;;;17.60;99.90;;;;;;5098772;28;20206;-86
2021/06/15 02:31:31;;;;;;;0.30;0.30;;;17.70;99.90;;;;;;5100160;28;20188;-85
2021/06/15 02:34:06;;;;;;;0.20;0.20;;;17.80;99.90;;;;;;5107619;28;20188;-85
2021/06/15 02:36:34;;;;;;;0.70;0.50;;;17.90;99.90;;;;;;5103823;28;20175;-85
2021/06/15 02:39:09;;;;;;;0.30;0.30;;;18.00;99.90;;;;;;5107150;28;20208;-85
2021/06/15 02:41:39;;;;;;;0.20;0.20;;;18.00;99.90;;;;;;5111214;28;20384;-85
2021/06/15 02:44:07;;;;;;;0.10;0.10;;;18.00;99.90;;;;;;5110692;28;20233;-85
2021/06/15 02:46:35;;;;;;;0.40;0.40;;;18.00;99.90;;;;;;5101599;28;20273;-89
2021/06/15 02:49:12;;;;;;;0.60;0.60;;;18.00;99.90;;;;;;5108275;28;20204;-84
2021/06/15 02:51:47;;;;;;;0.20;0.20;;;18.00;99.90;;;;;;5108476;28;20172;-86
2021/06/15 02:54:27;;;;;;;1.03;0.40;;;18.00;99.90;;;;;;5106221;28;20211;-85
2021/06/15 02:56:57;;;;;;;0.10;0.10;;;18.10;99.90;;;;;;5106922;28;20214;-85
2021/06/15 02:59:22;;;;;;;0.10;0.10;;;18.10;99.90;;;;;;5098330;28;20204;-85
2021/06/15 03:01:49;;;;;;;1.60;0.47;;;18.10;99.90;;;;;;5108022;28;20194;-85
2021/06/15 03:04:16;;;;;;;0.30;0.30;;;18.10;99.90;;;;;;5099833;28;20641;-85
2021/06/15 03:06:42;;;;;;;0.27;0.27;;;18.00;99.90;;;;;;5106758;28;20191;-84
2021/06/15 03:09:08;;;;;;;0.30;0.30;;;18.00;99.90;;;;;;5113126;28;20230;-85
2021/06/15 03:11:40;;;;;;;0.93;0.93;;;18.00;99.90;;;;;;5109189;28;20211;-85
2021/06/15 03:14:16;;;;;;;0.30;0.20;;;17.90;99.90;;;;;;5108363;28;20207;-88
2021/06/15 03:16:44;;;;;;;0.40;0.30;;;17.90;99.90;;;;;;5093974;28;20672;-88
2021/06/15 03:19:23;;;;;;;0.23;0.23;;;17.80;99.90;;;;;;5100403;28;20236;-86
2021/06/15 03:22:04;;;;;;;0.57;0.57;;;17.90;99.90;;;;;;5099376;28;20194;-85
2021/06/15 03:24:32;;;;;;;0.50;0.50;;;17.90;99.90;;;;;;5104779;28;20204;-85
2021/06/15 03:27:11;;;;;;;0.40;0.40;;;18.00;99.90;;;;;;5102185;28;20228;-89
2021/06/15 03:29:40;;;;;;;0.53;0.53;;;18.00;99.90;;;;;;5099373;28;20710;-85
2021/06/15 03:32:09;;;;;;;0.10;0.10;;;18.10;99.90;;;;;;5100226;28;20191;-86
2021/06/15 03:34:41;;;;;;;0.37;0.37;;;18.10;99.90;;;;;;5096446;28;20180;-86
2021/06/15 03:37:15;;;;;;;0.40;0.40;;;18.20;99.90;;;;;;5096779;28;20219;-86
2021/06/15 03:39:40;;;;;;;0.40;0.40;;;18.20;99.90;;;;;;5104026;28;20224;-86
2021/06/15 03:42:08;;;;;;;0.40;0.40;;;18.40;99.90;;;;;;5110013;28;20792;-85
2021/06/15 03:44:34;;;;;;;0.47;0.47;;;18.50;99.90;;;;;;5103176;28;20211;-85
2021/06/15 03:47:01;;;;;;;0.20;0.20;;;18.70;99.90;;;;;;5102242;28;20251;-85
2021/06/15 03:49:29;;;;;;;0.70;0.60;;;19.00;99.90;;;;;;5108645;28;20219;-85
2021/06/15 03:52:00;;;;;;;0.40;0.40;;;19.10;99.90;;;;;;5113951;28;20205;-87
2021/06/15 03:54:27;;;;;;;0.40;0.40;;;19.40;99.90;;;;;;5106053;28;20615;-85
2021/06/15 03:56:56;;;;;;;0.40;0.30;;;20.10;99.90;;;;;;5105475;28;20192;-87
2021/06/15 03:59:26;;;;;;;0.87;0.30;;;20.80;99.90;;;;;;5107469;28;20207;-86
2021/06/15 04:01:55;;;;;;;0.37;0.37;;;21.80;99.90;;;;;;5104446;28;20189;-86
2021/06/15 04:04:22;;;;;;;0.30;0.30;;;22.70;99.90;;;;;;5108169;28;20207;-86
2021/06/15 04:06:50;;;;;;;0.30;0.30;;;23.30;99.90;;;;;;5104034;28;20184;-85
2021/06/15 04:09:25;;;;;;;0.30;0.30;;;23.80;99.90;;;;;;5112542;28;20207;-88
2021/06/15 04:11:53;;;;;;;0.83;0.40;;;23.50;99.90;;;;;;5107214;28;20270;-85
2021/06/15 04:14:20;;;;;;;0.53;0.53;;;22.90;99.90;;;;;;5113255;28;20236;-85
2021/06/15 04:16:47;;;;;;;0.50;0.50;;;22.00;99.90;;;;;;5095866;28;20187;-85
2021/06/15 04:19:18;;;;;;;0.50;0.40;;;21.50;99.90;;;;;;5104762;28;20255;-85
2021/06/15 04:21:46;;;;;;;0.30;0.30;;;21.10;99.90;;;;;;5098769;28;20188;-86
2021/06/15 04:24:16;;;;;;;0.37;0.37;;;20.80;99.90;;;;;;5099056;28;20208;-86
2021/06/15 04:26:42;;;;;;;0.53;0.40;;;20.70;99.90;;;;;;5106235;28;20183;-85
2021/06/15 04:29:10;;;;;;;0.93;0.43;;;20.60;99.90;;;;;;5103525;28;20199;-86
2021/06/15 04:31:39;;;;;;;0.60;0.60;;;20.70;99.90;;;;;;5102997;28;20608;-87
2021/06/15 04:34:06;;;;;;;0.67;0.67;;;20.90;99.90;;;;;;5096875;28;20321;-86
2021/06/15 04:36:33;;;;;;;0.33;0.33;;;21.10;99.90;;;;;;5106683;28;20211;-90
2021/06/15 04:39:03;;;;;;;0.53;0.53;;;21.10;99.90;;;;;;5095780;28;20641;-85
2021/06/15 04:41:36;;;;;;;0.20;0.20;;;21.10;99.90;;;;;;5101701;28;20283;-86
2021/06/15 04:44:10;;;;;;;0.40;0.30;;;20.90;99.90;;;;;;5111424;28;20206;-87
2021/06/15 04:46:50;;;;;;;0.43;0.43;;;20.60;99.90;;;;;;5100670;28;20268;-91
2021/06/15 04:49:34;;;;;;;0.20;0.20;;;20.60;99.90;;;;;;5103627;28;20207;-86
2021/06/15 04:52:02;;;;;;;0.60;0.60;;;20.80;99.90;;;;;;5108736;28;20610;-88
2021/06/15 04:54:41;;;;;;;0.40;0.40;;;20.80;99.90;;;;;;5103754;28;20660;-91
2021/06/15 04:57:13;;;;;;;0.30;0.30;;;20.90;99.90;;;;;;5100044;28;20222;-88
2021/06/15 04:59:41;;;;;;;0.27;0.27;;;20.80;99.90;;;;;;5098766;28;20211;-86
2021/06/15 05:02:07;;;;;;;0.30;0.30;;;20.90;99.90;;;;;;5096503;28;20199;-86
2021/06/15 05:04:34;;;;;;;0.30;0.30;;;20.80;99.90;;;;;;5093644;28;20691;-85
2021/06/15 05:07:01;;;;;;;0.50;0.50;;;20.80;99.90;;;;;;5104148;28;20222;-87
2021/06/15 05:09:29;;;;;;;0.37;0.37;;;20.80;99.90;;;;;;5107034;28;20199;-86
2021/06/15 05:11:56;;;;;;;1.63;0.60;;;20.80;99.90;;;;;;5096163;28;20660;-86
2021/06/15 05:14:33;;;;;;;0.30;0.30;;;20.90;99.90;;;;;;5098745;28;20184;-84
2021/06/15 05:17:01;;;;;;;0.50;0.50;;;20.90;99.90;;;;;;5095958;28;20203;-86
2021/06/15 05:19:26;;;;;;;0.90;0.90;;;20.70;99.90;;;;;;5102169;28;20211;-86
2021/06/15 05:22:02;;;;;;;0.40;0.40;;;20.80;99.90;;;;;;5103417;28;20572;-86
2021/06/15 05:24:33;;;;;;;0.50;0.50;;;20.80;99.90;;;;;;5093669;28;20259;-83
2021/06/15 05:26:59;;;;;;;1.90;0.90;;;20.80;99.90;;;;;;5102124;28;20211;-84
2021/06/15 05:29:24;;;;;;;2.70;0.37;;;20.80;99.90;;;;;;5111043;28;20210;-82
2021/06/15 05:31:50;;;;;;;0.53;0.43;;;20.90;99.90;;;;;;5141062;27;20179;-84
2021/06/15 05:34:16;;;;;;;0.97;0.97;;;20.90;99.90;;;;;;5120240;28;20188;-83
2021/06/15 05:36:42;;;;;;;0.33;0.33;;;20.80;99.90;;;;;;5119553;28;20259;-84
2021/06/15 05:39:08;;;;;;;2.63;0.87;;;20.80;99.90;;;;;;5108776;28;20237;-82
2021/06/15 05:41:33;;;;;;;0.50;0.50;;;20.80;99.90;;;;;;5098713;28;20255;-83
2021/06/15 05:43:59;;;;;;;0.40;0.30;;;21.00;99.90;;;;;;5105688;28;20539;-84
2021/06/15 05:46:24;;;;;;;1.60;0.83;;;21.10;99.90;;;;;;5111776;27;20203;-83
2021/06/15 05:48:50;;;;;;;1.37;0.90;;;21.20;99.90;;;;;;5100855;28;20203;-84
2021/06/15 05:51:15;;;;;;;0.20;0.20;;;21.40;99.90;;;;;;5104162;28;20180;-82
2021/06/15 05:53:41;;;;;;;0.30;0.30;;;21.50;99.90;;;;;;5096815;28;20703;-85
2021/06/15 05:56:07;;;;;;;0.83;0.63;;;21.70;99.90;;;;;;5106331;28;20176;-83
2021/06/15 05:58:32;;;;;;;0.50;0.40;;;21.80;99.90;;;;;;5100623;28;20199;-83
2021/06/15 06:00:58;;;;;;;0.30;0.30;;;22.10;99.90;;;;;;5101980;28;20246;-83
2021/06/15 06:03:33;;;;;;;0.50;0.23;;;22.20;99.90;;;;;;5095982;28;20208;-83
2021/06/15 06:08:45;;;;;;;0.70;0.40;;;22.40;99.90;;;;;;5081733;28;20235;-82
2021/06/15 06:11:10;;;;;;;8.40;0.40;;;22.50;99.90;;;;;;5115665;27;20180;-83
2021/06/15 06:13:36;;;;;;;2.00;0.93;;;22.70;99.90;;;;;;5099695;27;20205;-83
2021/06/15 06:16:08;;;;;;;1.07;1.07;;;22.90;99.90;;;;;;5104781;27;20576;-83
2021/06/15 06:18:33;;;;;;;0.40;0.40;;;22.60;99.90;;;;;;5105402;28;20204;-83
2021/06/15 06:20:59;;;;;;;0.70;0.57;;;22.80;99.90;;;;;;5108347;28;20195;-83
2021/06/15 06:23:28;;;;;;;0.73;0.43;;;23.00;99.90;;;;;;5103155;28;20195;-82
2021/06/15 06:25:53;;;;;;;0.40;0.40;;;23.20;99.90;;;;;;5118168;27;20188;-82
2021/06/15 06:28:19;;;;;;;0.40;0.33;;;23.30;99.90;;;;;;5105999;28;20587;-82
2021/06/15 06:30:44;;;;;;;0.83;0.83;;;23.20;99.90;;;;;;5103053;28;20235;-83
2021/06/15 06:33:10;;;;;;;0.30;0.30;;;23.30;99.90;;;;;;5108060;28;20643;-83
2021/06/15 06:35:35;;;;;;;0.40;0.40;;;23.50;99.90;;;;;;5093788;28;20196;-83
2021/06/15 06:38:01;;;;;;;1.47;0.70;;;23.60;99.90;;;;;;5109685;28;20235;-83
2021/06/15 06:40:27;;;;;;;0.40;0.40;;;23.70;99.90;;;;;;5101703;28;20188;-83
2021/06/15 06:42:52;;;;;;;0.73;0.57;;;23.80;99.90;;;;;;5104986;28;20412;-83
2021/06/15 06:45:19;;;;;;;2.77;0.40;;;24.00;99.90;;;;;;5097143;28;20214;-83
2021/06/15 06:47:45;;;;;;;0.33;0.33;;;24.20;99.90;;;;;;5097271;28;20188;-83
2021/06/15 06:50:10;;;;;;;0.93;0.80;;;24.40;99.90;;;;;;5098053;28;20895;-86
2021/06/15 06:52:38;;;;;;;0.43;0.43;;;24.10;99.90;;;;;;5104058;28;20629;-85
2021/06/15 06:55:05;;;;;;;1.23;0.77;;;24.10;99.90;;;;;;5102353;28;20259;-84
2021/06/15 06:57:30;;;;;;;0.60;0.47;;;24.40;99.90;;;;;;5111863;28;20188;-83
2021/06/15 06:59:56;;;;;;;0.73;0.60;;;24.70;99.90;;;;;;5097817;28;20208;-82
2021/06/15 07:02:21;;;;;;;1.10;0.77;;;24.90;99.90;;;;;;5102963;28;20192;-82
2021/06/15 07:04:47;;;;;;;0.37;0.37;;;24.90;99.90;;;;;;5100022;28;20283;-83
2021/06/15 07:07:13;;;;;;;0.40;0.40;;;25.00;99.90;;;;;;5098333;27;20191;-83
2021/06/15 07:09:38;;;;;;;0.47;0.47;;;25.10;99.90;;;;;;5106412;28;20202;-84
2021/06/15 07:12:04;;;;;;;0.40;0.40;;;25.20;99.90;;;;;;5096024;28;20191;-82
2021/06/15 07:14:30;;;;;;;1.17;1.07;;;25.20;99.90;;;;;;5099723;28;20188;-82
2021/06/15 07:16:55;;;;;;;0.70;0.70;;;25.30;99.90;;;;;;5105181;28;20236;-81
2021/06/15 07:19:22;;;;;;;0.57;0.57;;;25.30;99.90;;;;;;5104481;28;20212;-83
2021/06/15 07:21:48;;;;;;;0.50;0.50;;;25.30;99.90;;;;;;5115820;27;20191;-82
2021/06/15 07:24:13;;;;;;;0.87;0.50;;;25.50;99.90;;;;;;5093191;28;20215;-83
2021/06/15 07:26:39;;;;;;;0.60;0.40;;;25.60;99.90;;;;;;5093367;28;20200;-81
2021/06/15 07:29:04;;;;;;;0.50;0.50;;;25.90;99.90;;;;;;5098432;28;20211;-82
2021/06/15 07:31:31;;;;;;;0.70;0.70;;;25.80;99.90;;;;;;5106744;28;20180;-81
2021/06/15 07:33:57;;;;;;;0.57;0.57;;;26.00;99.90;;;;;;5110248;28;20303;-83
2021/06/15 07:36:22;;;;;;;1.07;0.77;;;26.30;99.90;;;;;;5108414;28;20627;-82
2021/06/15 07:38:51;;;;;;;0.40;0.30;;;26.20;99.90;;;;;;5092483;28;20204;-81
2021/06/15 07:41:16;;;;;;;1.13;0.60;;;26.30;99.90;;;;;;5094006;28;20207;-81
2021/06/15 07:43:42;;;;;;;0.40;0.40;;;26.40;99.90;;;;;;5102476;28;20235;-83
2021/06/15 07:46:08;;;;;;;0.37;0.37;;;26.60;99.90;;;;;;5102310;28;20192;-83
2021/06/15 07:48:33;;;;;;;1.63;0.40;;;26.80;99.90;;;;;;5100362;28;20607;-82
2021/06/15 07:50:59;;;;;;;0.33;0.33;;;26.90;99.90;;;;;;5092456;28;20183;-82
2021/06/15 07:53:24;;;;;;;0.40;0.40;;;27.00;99.90;;;;;;5098666;28;20204;-81
2021/06/15 07:55:50;;;;;;;2.20;0.80;;;27.30;99.90;;;;;;5104889;28;20636;-82
2021/06/15 07:58:15;;;;;;;0.67;0.40;;;27.40;99.90;;;;;;5092909;28;20201;-82
2021/06/15 08:00:41;;;;;;;0.30;0.30;;;27.60;99.90;;;;;;5095156;28;20172;-82
2021/06/15 08:03:07;;;;;;;0.83;0.83;;;27.80;99.90;;;;;;5101985;28;20177;-81
2021/06/15 08:05:32;;;;;;;2.10;1.23;;;27.50;99.90;;;;;;5104447;28;20215;-82
2021/06/15 08:08:00;;;;;;;0.60;0.60;;;27.60;99.90;;;;;;5107417;28;20211;-83
2021/06/15 08:10:26;;;;;;;0.87;0.87;;;27.50;99.90;;;;;;5102477;28;20550;-82
2021/06/15 08:12:51;;;;;;;0.40;0.40;;;27.70;99.90;;;;;;5093094;28;20199;-82
2021/06/15 08:15:17;;;;;;;0.68;0.50;;;27.90;99.90;;;;;;5092096;28;20189;-82
2021/06/15 08:17:44;;;;;;;1.10;0.98;;;28.10;99.90;;;;;;5107915;28;20229;-82
2021/06/15 08:20:10;;;;;;;2.20;2.00;;;28.10;99.90;;;;;;5091957;28;20184;-82
2021/06/15 08:22:36;;;;;;;0.60;0.60;;;27.00;99.90;;;;;;5094545;28;20193;-83
2021/06/15 08:25:04;;;;;;;0.55;0.55;;;26.50;99.90;;;;;;5092929;28;20214;-82
2021/06/15 08:27:34;;;;;;;0.50;0.50;;;27.00;99.90;;;;;;5095208;28;20204;-83
2021/06/15 08:29:59;;;;;;;0.82;0.70;;;27.30;99.90;;;;;;5102607;28;20624;-82
2021/06/15 08:32:25;;;;;;;2.17;0.57;;;27.80;99.90;;;;;;5094614;28;20190;-83
2021/06/15 08:34:51;;;;;;;0.65;0.47;;;27.80;99.90;;;;;;5095760;28;20633;-83
2021/06/15 08:37:17;;;;;;;1.15;1.10;;;28.00;99.90;;;;;;5093977;28;20195;-83
2021/06/15 08:39:42;;;;;;;0.70;0.70;;;27.70;99.90;;;;;;5098851;28;20212;-82
2021/06/15 08:42:08;;;;;;;0.93;0.60;;;27.90;99.90;;;;;;5095953;28;20658;-82
2021/06/15 08:44:35;;;;;;;0.82;0.65;;;27.70;99.90;;;;;;5095507;28;20219;-82
2021/06/15 08:47:00;;;;;;;1.30;0.65;;;27.10;99.90;;;;;;5094722;28;20281;-82
2021/06/15 08:49:26;;;;;;;0.82;0.73;;;27.30;99.90;;;;;;5100650;28;20232;-81
2021/06/15 08:51:53;;;;;;;0.52;0.52;;;27.40;99.90;;;;;;5096153;28;20188;-81
2021/06/15 08:54:20;;;;;;;0.60;0.60;;;27.60;99.90;;;;;;5107303;28;20244;-82
2021/06/15 08:56:45;;;;;;;1.05;1.05;;;26.70;99.90;;;;;;5114834;28;20218;-83
2021/06/15 08:59:29;;;;;;;0.50;0.50;;;27.00;99.90;;;;;;5115152;28;20215;-83
2021/06/15 09:02:13;;;;;;;0.65;0.63;;;27.50;99.90;;;;;;5113890;28;20180;-83
2021/06/15 09:04:39;;;;;;;5.00;0.70;;;27.30;99.90;;;;;;5100107;28;20286;-82
2021/06/15 09:07:04;;;;;;;0.40;0.40;;;27.60;99.90;;;;;;5106395;28;20218;-82
2021/06/15 09:09:44;;;;;;;2.05;0.85;;;27.80;99.90;;;;;;5105848;28;20200;-82
2021/06/15 09:12:12;;;;;;;1.10;0.80;;;28.00;99.90;;;;;;5098059;28;20172;-81
2021/06/15 09:14:42;;;;;;;0.80;0.80;;;28.10;99.90;;;;;;5097206;28;20196;-82
2021/06/15 09:17:28;;;;;;;2.28;1.90;;;28.00;99.90;;;;;;5108132;28;20180;-83
2021/06/15 09:19:56;;;;;;;0.65;0.63;;;28.00;99.90;;;;;;5092239;28;20247;-83
2021/06/15 09:22:33;;;;;;;0.90;0.85;;;27.80;99.90;;;;;;5094414;28;20629;-83
2021/06/15 09:25:00;;;;;;;1.80;1.27;;;27.80;99.90;;;;;;5095862;28;20713;-82
2021/06/15 09:27:34;;;;;;;0.60;0.60;;;27.70;99.90;;;;;;5093489;28;20206;-83
2021/06/15 09:30:02;;;;;;;0.93;0.73;;;27.60;99.90;;;;;;5093651;28;20270;-82
2021/06/15 09:32:35;;;;;;;0.70;0.70;;;27.90;99.90;;;;;;5096255;28;20176;-81
2021/06/15 09:35:11;;;;;;;0.60;0.57;;;28.20;99.90;;;;;;5096181;28;20187;-81
2021/06/15 09:37:42;;;;;;;0.80;0.60;;;28.40;99.90;;;;;;5093733;28;20237;-82
2021/06/15 09:40:26;;;;;;;0.60;0.50;;;28.70;99.90;;;;;;5094568;28;20180;-81
2021/06/15 09:43:10;;;;;;;0.90;0.75;;;28.90;99.90;;;;;;5097237;28;20564;-82
2021/06/15 09:45:41;;;;;;;0.80;0.80;;;29.10;99.90;;;;;;5103690;28;20234;-81
2021/06/15 09:48:25;;;;;;;0.50;0.50;;;29.00;99.90;;;;;;5098669;28;20192;-82
2021/06/15 09:50:54;;;;;;;12.85;0.73;;;28.90;99.90;;;;;;5097594;28;20184;-81
2021/06/15 09:53:37;;;;;;;0.75;0.75;;;28.80;99.90;;;;;;5097562;28;20238;-81
2021/06/15 09:56:05;;;;;;;0.65;0.65;;;28.80;99.90;;;;;;5104590;28;20597;-82
2021/06/15 09:58:42;;;;;;;0.57;0.57;;;29.20;99.90;;;;;;5095178;28;20561;-82
2021/06/15 10:01:08;;;;;;;0.40;0.40;;;29.50;99.90;;;;;;5095642;28;20195;-80
2021/06/15 10:03:34;;;;;;;1.75;0.82;;;29.60;99.90;;;;;;5103787;28;20204;-82
2021/06/15 10:05:59;;;;;;;0.55;0.55;;;29.80;99.90;;;;;;5110033;28;20582;-81
2021/06/15 10:08:44;;;;;;;1.02;1.02;;;29.80;99.90;;;;;;5107502;28;20208;-82
2021/06/15 10:11:10;;;;;;;1.27;0.60;;;29.20;99.90;;;;;;5104214;28;20229;-82
2021/06/15 10:13:38;;;;;;;0.50;0.50;;;28.90;99.90;;;;;;5103196;28;20713;-81
2021/06/15 10:16:04;;;;;;;0.50;0.50;;;29.30;99.90;;;;;;5110902;28;20180;-81
2021/06/15 10:18:32;;;;;;;0.43;0.43;;;29.50;99.90;;;;;;5113948;28;20192;-82
2021/06/15 10:20:57;;;;;;;1.30;1.00;;;29.60;99.90;;;;;;5113960;28;20187;-82
2021/06/15 10:23:23;;;;;;;0.70;0.70;;;29.90;99.90;;;;;;5101258;28;20200;-82
2021/06/15 10:25:49;;;;;;;0.93;0.90;;;29.60;99.90;;;;;;5123394;27;20192;-82
2021/06/15 10:28:15;;;;;;;1.23;0.88;;;29.60;99.90;;;;;;5110443;27;20553;-82
2021/06/15 10:30:45;;;;;;;0.60;0.60;;;29.80;99.90;;;;;;5093319;28;20329;-80
2021/06/15 10:33:21;;;;;;;1.50;1.00;;;30.30;99.90;;;;;;5092841;28;20236;-82
2021/06/15 10:35:50;;;;;;;0.55;0.55;;;30.30;99.90;;;;;;5092833;28;20187;-82
2021/06/15 10:38:29;;;;;;;0.60;0.60;;;30.10;99.90;;;;;;5093840;28;20199;-81
2021/06/15 10:41:01;;;;;;;0.80;0.80;;;30.40;99.90;;;;;;5094826;28;20180;-82
2021/06/15 10:43:35;;;;;;;0.68;0.68;;;30.10;99.90;;;;;;5095030;28;20285;-81
2021/06/15 10:46:13;;;;;;;0.68;0.68;;;30.40;99.90;;;;;;5094059;28;20175;-82
2021/06/15 10:48:44;;;;;;;1.02;0.70;;;30.60;99.90;;;;;;5096474;28;20667;-82
2021/06/15 10:51:28;;;;;;;0.68;0.68;;;30.70;99.90;;;;;;5093921;28;20546;-82
2021/06/15 10:54:02;;;;;;;0.63;0.60;;;29.50;99.90;;;;;;5100356;28;20175;-82
2021/06/15 10:56:33;;;;;;;1.02;0.40;;;30.00;99.90;;;;;;5098508;28;20183;-81
2021/06/15 10:59:03;;;;;;;0.82;0.82;;;30.30;99.90;;;;;;5101551;28;20215;-80
2021/06/15 11:01:37;;;;;;;1.20;1.02;;;30.20;99.90;;;;;;5091999;28;20563;-81
2021/06/15 11:04:09;;;;;;;0.93;0.85;;;30.10;99.90;;;;;;5101679;28;20277;-82
2021/06/15 11:06:34;;;;;;;0.50;0.45;;;30.20;99.90;;;;;;5108348;28;20182;-82
2021/06/15 11:09:02;;;;;;;0.70;0.70;;;30.70;99.90;;;;;;5105706;28;20196;-82
2021/06/15 11:11:29;;;;;;;0.80;0.80;;;30.10;99.90;;;;;;5093053;28;20529;-82
2021/06/15 11:13:56;;;;;;;0.63;0.63;;;30.50;99.90;;;;;;5102876;28;20191;-82
2021/06/15 11:16:23;;;;;;;0.95;0.70;;;30.90;99.90;;;;;;5097813;28;20179;-82
2021/06/15 11:19:08;;;;;;;0.70;0.57;;;31.10;99.90;;;;;;5098204;28;20683;-82
2021/06/15 11:21:45;;;;;;;1.58;1.48;;;31.30;99.90;;;;;;5092410;28;20196;-81
2021/06/15 11:24:37;;;;;;;0.80;0.80;;;30.40;99.90;;;;;;5092771;28;20215;-82
2021/06/15 11:27:26;;;;;;;0.93;0.88;;;29.80;99.90;;;;;;5089251;28;20218;-81
2021/06/15 11:29:54;;;;;;;0.60;0.60;;;30.20;99.90;;;;;;5083349;28;20672;-81
2021/06/15 11:32:33;;;;;;;0.75;0.75;;;30.50;99.90;;;;;;5095280;28;20258;-82
2021/06/15 11:34:59;;;;;;;0.43;0.43;;;31.00;99.90;;;;;;5092052;28;20180;-82
2021/06/15 11:37:28;;;;;;;1.00;1.00;;;31.50;99.90;;;;;;5095716;28;20189;-82
2021/06/15 11:39:54;;;;;;;0.70;0.70;;;31.70;99.90;;;;;;5096396;28;20211;-82
2021/06/15 11:42:28;;;;;;;0.60;0.60;;;32.10;99.90;;;;;;5092295;28;20225;-81
2021/06/15 11:45:15;;;;;;;0.77;0.77;;;32.30;99.90;;;;;;5091444;28;20216;-80
2021/06/15 11:47:47;;;;;;;1.02;0.98;;;32.60;99.90;;;;;;5091349;28;20176;-82
2021/06/15 11:50:31;;;;;;;2.45;1.17;;;32.70;99.90;;;;;;5095659;28;20175;-81
2021/06/15 11:53:09;;;;;;;0.68;0.68;;;32.70;99.90;;;;;;5096638;28;20228;-82
2021/06/15 11:55:46;;;;;;;1.13;1.02;;;32.70;99.90;;;;;;5099915;28;20180;-81
2021/06/15 11:58:19;;;;;;;0.77;0.77;;;31.30;99.90;;;;;;5111375;28;20203;-82
2021/06/15 12:00:51;;;;;;;0.85;0.85;;;31.50;99.90;;;;;;5113647;28;20184;-82
2021/06/15 12:03:22;;;;;;;0.73;0.73;;;31.60;99.90;;;;;;5110972;28;20188;-82
2021/06/15 12:05:56;;;;;;;1.58;1.27;;;32.10;99.90;;;;;;5110869;28;20203;-82
2021/06/15 12:08:22;;;;;;;0.80;0.80;;;31.60;99.90;;;;;;5125561;28;20192;-81
2021/06/15 12:10:50;;;;;;;0.80;0.80;;;31.80;99.90;;;;;;5120441;28;20187;-82
2021/06/15 12:13:20;;;;;;;0.47;0.47;;;32.30;99.90;;;;;;5114715;28;20180;-82
2021/06/15 12:16:02;;;;;;;0.82;0.68;;;32.80;99.90;;;;;;5115613;28;20176;-82
2021/06/15 12:18:34;;;;;;;1.67;0.80;;;32.80;99.90;;;;;;5098989;28;20235;-82
2021/06/15 12:21:08;;;;;;;0.80;0.80;;;32.90;99.90;;;;;;5100313;28;20176;-82
2021/06/15 12:23:39;;;;;;;0.93;0.93;;;33.20;99.90;;;;;;5112828;28;20205;-81
2021/06/15 12:26:09;;;;;;;1.17;1.08;;;33.20;99.90;;;;;;5118925;28;20187;-82
2021/06/15 12:28:37;;;;;;;1.60;1.27;;;33.30;99.90;;;;;;5118033;28;20282;-82
2021/06/15 12:31:10;;;;;;;1.55;1.45;;;32.50;99.90;;;;;;5110393;28;20242;-82
2021/06/15 12:33:36;;;;;;;0.50;0.50;;;32.50;99.90;;;;;;5098271;28;20184;-82
2021/06/15 12:36:05;;;;;;;1.15;1.08;;;32.90;99.90;;;;;;5097804;28;20229;-82
2021/06/15 12:38:31;;;;;;;3.15;1.02;;;32.90;99.90;;;;;;5096528;28;20687;-82
2021/06/15 12:40:57;;;;;;;1.65;0.75;;;32.20;99.90;;;;;;5097355;28;20314;-82
2021/06/15 12:43:25;;;;;;;1.13;1.05;;;32.50;99.90;;;;;;5111090;28;20176;-82
2021/06/15 12:46:07;;;;;;;0.63;0.63;;;32.70;99.90;;;;;;5097368;28;20209;-82
2021/06/15 12:48:33;;;;;;;0.52;0.47;;;32.50;99.90;;;;;;5100355;28;20207;-82
2021/06/15 12:51:10;;;;;;;0.65;0.65;;;32.20;99.90;;;;;;5100781;28;20176;-82
2021/06/15 12:53:39;;;;;;;1.77;1.40;;;31.20;99.90;;;;;;5107086;28;20246;-82
2021/06/15 12:56:16;;;;;;;0.93;0.85;;;30.60;99.90;;;;;;5113097;28;20275;-82
2021/06/15 12:58:44;;;;;;;1.13;1.02;;;30.60;99.90;;;;;;5097560;28;20188;-81
2021/06/15 13:01:21;;;;;;;0.70;0.70;;;30.80;99.90;;;;;;5098054;28;20192;-82
2021/06/15 13:03:52;;;;;;;0.77;0.77;;;31.00;99.90;;;;;;5110881;28;20539;-81